sensor_id;sensor_type;location;lat;lon;timestamp;pressure;altitude;pressure_sealevel;temperature;humidity
61506;BME280;47366;51.916;4.574;2022-12-29T00:02:25;100016.28;;;10.28;98.00
61506;BME280;47366;51.916;4.574;2022-12-29T00:04:50;100009.81;;;10.30;97.70
61506;BME280;47366;51.916;4.574;2022-12-29T00:07:16;99999.84;;;10.31;97.71
61506;BME280;47366;51.916;4.574;2022-12-29T00:09:42;99995.94;;;10.35;97.67
61506;BME280;47366;51.916;4.574;2022-12-29T00:12:07;99990.38;;;10.36;96.78
61506;BME280;47366;51.916;4.574;2022-12-29T00:14:32;99997.41;;;10.39;96.31
61506;BME280;47366;51.916;4.574;2022-12-29T00:17:16;99981.16;;;10.39;96.05
61506;BME280;47366;51.916;4.574;2022-12-29T00:19:42;99974.44;;;10.45;95.83
61506;BME280;47366;51.916;4.574;2022-12-29T00:22:26;99971.75;;;10.45;95.44
61506;BME280;47366;51.916;4.574;2022-12-29T00:25:11;99976.06;;;10.47;95.37
61506;BME280;47366;51.916;4.574;2022-12-29T00:27:56;99966.94;;;10.48;95.00
61506;BME280;47366;51.916;4.574;2022-12-29T00:30:40;99960.56;;;10.49;95.62
61506;BME280;47366;51.916;4.574;2022-12-29T00:33:31;99952.56;;;10.48;95.22
61506;BME280;47366;51.916;4.574;2022-12-29T00:36:19;99953.53;;;10.47;95.64
61506;BME280;47366;51.916;4.574;2022-12-29T00:38:49;99948.22;;;10.45;96.03
61506;BME280;47366;51.916;4.574;2022-12-29T00:41:35;99945.00;;;10.40;95.95
61506;BME280;47366;51.916;4.574;2022-12-29T00:44:19;99955.00;;;10.39;96.18
61506;BME280;47366;51.916;4.574;2022-12-29T00:46:44;99936.03;;;10.39;95.89
61506;BME280;47366;51.916;4.574;2022-12-29T00:49:12;99939.09;;;10.35;96.81
61506;BME280;47366;51.916;4.574;2022-12-29T00:52:01;99947.72;;;10.27;98.66
61506;BME280;47366;51.916;4.574;2022-12-29T00:54:28;99953.63;;;10.21;99.00
61506;BME280;47366;51.916;4.574;2022-12-29T00:56:54;99965.63;;;10.17;99.78
61506;BME280;47366;51.916;4.574;2022-12-29T00:59:20;99954.41;;;10.10;100.00
61506;BME280;47366;51.916;4.574;2022-12-29T01:01:46;99952.91;;;10.06;100.00
61506;BME280;47366;51.916;4.574;2022-12-29T01:04:12;99947.09;;;9.99;100.00
61506;BME280;47366;51.916;4.574;2022-12-29T01:06:39;99950.03;;;9.96;100.00
61506;BME280;47366;51.916;4.574;2022-12-29T01:09:05;99957.50;;;9.93;100.00
61506;BME280;47366;51.916;4.574;2022-12-29T01:11:49;99949.38;;;9.93;100.00
61506;BME280;47366;51.916;4.574;2022-12-29T01:14:15;99948.63;;;9.91;100.00
61506;BME280;47366;51.916;4.574;2022-12-29T01:16:41;99950.38;;;9.92;100.00
61506;BME280;47366;51.916;4.574;2022-12-29T01:19:06;99960.31;;;9.91;100.00
61506;BME280;47366;51.916;4.574;2022-12-29T01:21:32;99960.31;;;9.91;100.00
61506;BME280;47366;51.916;4.574;2022-12-29T01:23:58;99962.38;;;9.88;100.00
61506;BME280;47366;51.916;4.574;2022-12-29T01:26:23;99944.97;;;9.92;100.00
61506;BME280;47366;51.916;4.574;2022-12-29T01:28:48;99946.91;;;9.90;100.00
61506;BME280;47366;51.916;4.574;2022-12-29T01:31:14;99939.66;;;9.90;100.00
61506;BME280;47366;51.916;4.574;2022-12-29T01:33:40;99945.16;;;9.89;100.00
61506;BME280;47366;51.916;4.574;2022-12-29T01:36:09;99948.63;;;9.91;100.00
61506;BME280;47366;51.916;4.574;2022-12-29T01:38:35;99944.19;;;9.90;100.00
61506;BME280;47366;51.916;4.574;2022-12-29T01:41:01;99939.66;;;9.90;100.00
61506;BME280;47366;51.916;4.574;2022-12-29T01:43:42;99937.03;;;9.89;100.00
61506;BME280;47366;51.916;4.574;2022-12-29T01:48:39;99926.56;;;9.84;100.00
61506;BME280;47366;51.916;4.574;2022-12-29T01:51:04;99948.34;;;9.83;100.00
61506;BME280;47366;51.916;4.574;2022-12-29T01:53:32;99949.28;;;9.82;100.00
61506;BME280;47366;51.916;4.574;2022-12-29T01:56:03;99941.19;;;9.82;100.00
61506;BME280;47366;51.916;4.574;2022-12-29T01:58:33;99943.88;;;9.82;100.00
61506;BME280;47366;51.916;4.574;2022-12-29T02:01:02;99951.25;;;9.79;100.00
61506;BME280;47366;51.916;4.574;2022-12-29T02:03:28;99954.06;;;9.78;100.00
61506;BME280;47366;51.916;4.574;2022-12-29T02:06:08;99962.19;;;9.78;100.00
61506;BME280;47366;51.916;4.574;2022-12-29T02:08:37;99948.91;;;9.75;100.00
61506;BME280;47366;51.916;4.574;2022-12-29T02:11:03;99959.59;;;9.76;100.00
61506;BME280;47366;51.916;4.574;2022-12-29T02:13:28;99957.75;;;9.77;100.00
61506;BME280;47366;51.916;4.574;2022-12-29T02:19:20;99944.97;;;9.79;100.00
61506;BME280;47366;51.916;4.574;2022-12-29T02:27:31;99942.50;;;9.76;100.00
61506;BME280;47366;51.916;4.574;2022-12-29T02:30:27;99947.06;;;9.75;99.55
61506;BME280;47366;51.916;4.574;2022-12-29T02:33:30;99947.06;;;9.75;99.27
61506;BME280;47366;51.916;4.574;2022-12-29T02:36:16;99945.31;;;9.74;99.19
61506;BME280;47366;51.916;4.574;2022-12-29T02:38:56;99944.34;;;9.75;99.39
61506;BME280;47366;51.916;4.574;2022-12-29T02:46:37;99954.41;;;9.73;98.15
61506;BME280;47366;51.916;4.574;2022-12-29T02:49:12;99945.00;;;9.66;97.96
61506;BME280;47366;51.916;4.574;2022-12-29T02:51:50;99947.06;;;9.63;98.14
61506;BME280;47366;51.916;4.574;2022-12-29T02:54:18;99946.19;;;9.62;97.60
61506;BME280;47366;51.916;4.574;2022-12-29T02:57:02;99943.63;;;9.61;97.29
61506;BME280;47366;51.916;4.574;2022-12-29T02:59:28;99939.94;;;9.62;97.40
61506;BME280;47366;51.916;4.574;2022-12-29T03:04:51;99949.13;;;9.59;97.16
61506;BME280;47366;51.916;4.574;2022-12-29T03:07:23;99948.28;;;9.59;96.54
61506;BME280;47366;51.916;4.574;2022-12-29T03:10:19;99940.78;;;9.62;97.05
61506;BME280;47366;51.916;4.574;2022-12-29T03:13:23;99932.69;;;9.62;96.80
61506;BME280;47366;51.916;4.574;2022-12-29T03:16:23;99921.00;;;9.62;96.70
61506;BME280;47366;51.916;4.574;2022-12-29T03:21:34;99927.50;;;9.59;96.63
61506;BME280;47366;51.916;4.574;2022-12-29T03:24:24;99926.00;;;9.55;96.84
61506;BME280;47366;51.916;4.574;2022-12-29T03:26:52;99924.28;;;9.54;96.89
61506;BME280;47366;51.916;4.574;2022-12-29T03:29:20;99937.03;;;9.52;97.17
61506;BME280;47366;51.916;4.574;2022-12-29T03:31:47;99937.88;;;9.52;97.01
61506;BME280;47366;51.916;4.574;2022-12-29T03:34:15;99926.53;;;9.47;97.16
61506;BME280;47366;51.916;4.574;2022-12-29T03:36:47;99932.72;;;9.49;96.84
61506;BME280;47366;51.916;4.574;2022-12-29T03:39:14;99928.25;;;9.48;96.99
61506;BME280;47366;51.916;4.574;2022-12-29T03:41:42;99935.66;;;9.46;97.11
61506;BME280;47366;51.916;4.574;2022-12-29T03:44:10;99942.75;;;9.47;97.25
61506;BME280;47366;51.916;4.574;2022-12-29T03:46:36;99948.06;;;9.49;96.91
61506;BME280;47366;51.916;4.574;2022-12-29T03:49:01;99941.78;;;9.48;96.44
61506;BME280;47366;51.916;4.574;2022-12-29T03:51:26;99942.66;;;9.49;96.56
61506;BME280;47366;51.916;4.574;2022-12-29T03:53:51;99958.75;;;9.50;96.10
61506;BME280;47366;51.916;4.574;2022-12-29T03:56:17;99955.72;;;9.55;95.92
61506;BME280;47366;51.916;4.574;2022-12-29T03:58:42;99954.63;;;9.57;95.41
61506;BME280;47366;51.916;4.574;2022-12-29T04:01:08;99949.22;;;9.57;95.19
61506;BME280;47366;51.916;4.574;2022-12-29T04:03:33;99943.81;;;9.57;94.15
61506;BME280;47366;51.916;4.574;2022-12-29T04:05:58;99954.63;;;9.57;94.67
61506;BME280;47366;51.916;4.574;2022-12-29T04:08:24;99949.13;;;9.59;94.48
61506;BME280;47366;51.916;4.574;2022-12-29T04:10:49;99950.56;;;9.52;94.06
61506;BME280;47366;51.916;4.574;2022-12-29T04:13:15;99952.41;;;9.51;94.17
61506;BME280;47366;51.916;4.574;2022-12-29T04:15:42;99964.50;;;9.46;94.31
61506;BME280;47366;51.916;4.574;2022-12-29T04:18:08;99964.94;;;9.40;94.46
61506;BME280;47366;51.916;4.574;2022-12-29T04:20:33;99952.84;;;9.32;95.08
61506;BME280;47366;51.916;4.574;2022-12-29T04:23:17;99940.06;;;9.22;95.74
61506;BME280;47366;51.916;4.574;2022-12-29T04:25:45;99945.03;;;9.15;95.97
61506;BME280;47366;51.916;4.574;2022-12-29T04:28:11;99956.38;;;9.07;96.45
61506;BME280;47366;51.916;4.574;2022-12-29T04:30:36;99945.13;;;9.01;96.61
61506;BME280;47366;51.916;4.574;2022-12-29T04:33:02;99951.94;;;8.93;97.09
61506;BME280;47366;51.916;4.574;2022-12-29T04:35:27;99949.38;;;8.92;97.04
61506;BME280;47366;51.916;4.574;2022-12-29T04:37:52;99964.72;;;8.91;96.97
61506;BME280;47366;51.916;4.574;2022-12-29T04:40:18;99963.63;;;8.94;97.01
61506;BME280;47366;51.916;4.574;2022-12-29T04:42:43;99951.31;;;8.90;96.92
61506;BME280;47366;51.916;4.574;2022-12-29T04:45:08;99942.13;;;8.92;96.70
61506;BME280;47366;51.916;4.574;2022-12-29T04:47:34;99954.44;;;8.97;96.81
61506;BME280;47366;51.916;4.574;2022-12-29T04:49:59;99953.47;;;8.98;96.46
61506;BME280;47366;51.916;4.574;2022-12-29T04:52:25;99958.78;;;8.99;96.54
61506;BME280;47366;51.916;4.574;2022-12-29T04:54:50;99969.34;;;9.02;96.26
61506;BME280;47366;51.916;4.574;2022-12-29T04:57:15;99973.78;;;9.03;95.91
61506;BME280;47366;51.916;4.574;2022-12-29T04:59:41;99977.38;;;9.04;96.11
61506;BME280;47366;51.916;4.574;2022-12-29T05:02:06;99968.28;;;9.05;96.08
61506;BME280;47366;51.916;4.574;2022-12-29T05:04:31;99966.56;;;9.04;96.20
61506;BME280;47366;51.916;4.574;2022-12-29T05:06:57;99974.66;;;9.04;96.16
61506;BME280;47366;51.916;4.574;2022-12-29T05:09:22;99979.16;;;9.03;96.11
61506;BME280;47366;51.916;4.574;2022-12-29T05:11:49;99969.25;;;9.04;95.90
61506;BME280;47366;51.916;4.574;2022-12-29T05:14:14;99974.66;;;9.04;95.93
61506;BME280;47366;51.916;4.574;2022-12-29T05:16:39;99974.66;;;9.04;95.84
61506;BME280;47366;51.916;4.574;2022-12-29T05:19:04;99985.47;;;9.04;95.44
61506;BME280;47366;51.916;4.574;2022-12-29T05:21:30;99989.88;;;9.05;95.30
61506;BME280;47366;51.916;4.574;2022-12-29T05:23:55;99992.69;;;9.03;95.27
61506;BME280;47366;51.916;4.574;2022-12-29T05:26:20;99993.56;;;9.04;94.75
61506;BME280;47366;51.916;4.574;2022-12-29T05:28:46;99986.31;;;9.04;94.29
61506;BME280;47366;51.916;4.574;2022-12-29T05:31:11;99996.91;;;9.07;94.32
61506;BME280;47366;51.916;4.574;2022-12-29T05:33:36;100004.91;;;9.09;94.35
61506;BME280;47366;51.916;4.574;2022-12-29T05:36:08;100001.69;;;9.04;95.05
61506;BME280;47366;51.916;4.574;2022-12-29T05:38:34;100002.63;;;9.03;95.33
61506;BME280;47366;51.916;4.574;2022-12-29T05:41:00;100009.41;;;8.96;95.53
61506;BME280;47366;51.916;4.574;2022-12-29T05:43:25;100008.56;;;8.95;95.75
61506;BME280;47366;51.916;4.574;2022-12-29T05:45:51;99998.84;;;8.92;96.30
61506;BME280;47366;51.916;4.574;2022-12-29T05:48:17;100003.47;;;8.90;96.08
61506;BME280;47366;51.916;4.574;2022-12-29T05:50:42;99993.75;;;8.88;95.96
61506;BME280;47366;51.916;4.574;2022-12-29T05:53:11;99996.66;;;8.85;95.79
61506;BME280;47366;51.916;4.574;2022-12-29T05:55:36;99994.81;;;8.85;96.17
61506;BME280;47366;51.916;4.574;2022-12-29T05:58:02;100004.66;;;8.86;95.69
61506;BME280;47366;51.916;4.574;2022-12-29T06:00:27;100022.03;;;8.82;96.07
61506;BME280;47366;51.916;4.574;2022-12-29T06:02:52;100030.16;;;8.82;95.98
61506;BME280;47366;51.916;4.574;2022-12-29T06:05:18;100031.97;;;8.82;96.18
61506;BME280;47366;51.916;4.574;2022-12-29T06:07:43;100026.00;;;8.77;95.82
61506;BME280;47366;51.916;4.574;2022-12-29T06:10:09;100023.63;;;8.72;95.95
61506;BME280;47366;51.916;4.574;2022-12-29T06:12:35;100028.81;;;8.75;96.08
61506;BME280;47366;51.916;4.574;2022-12-29T06:15:00;100041.44;;;8.75;95.86
61506;BME280;47366;51.916;4.574;2022-12-29T06:17:25;100028.81;;;8.75;95.40
61506;BME280;47366;51.916;4.574;2022-12-29T06:19:51;100022.66;;;8.73;94.31
61506;BME280;47366;51.916;4.574;2022-12-29T06:22:16;100026.91;;;8.77;94.63
61506;BME280;47366;51.916;4.574;2022-12-29T06:24:41;100016.97;;;8.78;94.08
61506;BME280;47366;51.916;4.574;2022-12-29T06:27:07;100041.34;;;8.76;93.78
61506;BME280;47366;51.916;4.574;2022-12-29T06:29:32;100029.00;;;8.72;93.81
61506;BME280;47366;51.916;4.574;2022-12-29T06:31:58;100021.81;;;8.73;93.46
61506;BME280;47366;51.916;4.574;2022-12-29T06:34:24;100039.94;;;8.70;93.25
61506;BME280;47366;51.916;4.574;2022-12-29T06:36:49;100032.47;;;8.74;92.57
61506;BME280;47366;51.916;4.574;2022-12-29T06:39:15;100030.63;;;8.75;91.96
61506;BME280;47366;51.916;4.574;2022-12-29T06:41:40;100040.03;;;8.69;92.68
61506;BME280;47366;51.916;4.574;2022-12-29T06:44:05;100024.34;;;8.61;92.50
61506;BME280;47366;51.916;4.574;2022-12-29T06:46:31;100034.47;;;8.58;92.96
61506;BME280;47366;51.916;4.574;2022-12-29T06:48:56;100029.50;;;8.52;93.04
61506;BME280;47366;51.916;4.574;2022-12-29T06:51:21;100041.38;;;8.49;93.60
61506;BME280;47366;51.916;4.574;2022-12-29T06:53:47;100035.28;;;8.45;93.73
61506;BME280;47366;51.916;4.574;2022-12-29T06:56:12;100026.69;;;8.39;94.03
61506;BME280;47366;51.916;4.574;2022-12-29T06:58:37;100045.69;;;8.37;94.24
61506;BME280;47366;51.916;4.574;2022-12-29T07:01:03;100047.53;;;8.37;94.06
61506;BME280;47366;51.916;4.574;2022-12-29T07:03:28;100053.78;;;8.37;94.12
61506;BME280;47366;51.916;4.574;2022-12-29T07:05:54;100044.06;;;8.35;94.37
61506;BME280;47366;51.916;4.574;2022-12-29T07:08:20;100038.69;;;8.35;94.19
61506;BME280;47366;51.916;4.574;2022-12-29T07:10:45;100053.78;;;8.37;94.45
61506;BME280;47366;51.916;4.574;2022-12-29T07:13:11;100058.34;;;8.37;94.44
61506;BME280;47366;51.916;4.574;2022-12-29T07:15:37;100046.56;;;8.38;94.52
61506;BME280;47366;51.916;4.574;2022-12-29T07:18:03;100062.56;;;8.41;94.51
61506;BME280;47366;51.916;4.574;2022-12-29T07:20:29;100058.22;;;8.38;94.59
61506;BME280;47366;51.916;4.574;2022-12-29T07:22:54;100056.50;;;8.37;94.26
61506;BME280;47366;51.916;4.574;2022-12-29T07:25:20;100061.50;;;8.43;94.04
61506;BME280;47366;51.916;4.574;2022-12-29T07:27:45;100048.78;;;8.45;94.27
61506;BME280;47366;51.916;4.574;2022-12-29T07:30:11;100055.03;;;8.46;93.63
61506;BME280;47366;51.916;4.574;2022-12-29T07:32:36;100053.09;;;8.48;93.17
61506;BME280;47366;51.916;4.574;2022-12-29T07:35:02;100060.25;;;8.49;93.41
61506;BME280;47366;51.916;4.574;2022-12-29T07:37:28;100061.13;;;8.49;93.03
61506;BME280;47366;51.916;4.574;2022-12-29T07:39:53;100044.72;;;8.53;92.79
61506;BME280;47366;51.916;4.574;2022-12-29T07:42:18;100041.84;;;8.56;92.37
61506;BME280;47366;51.916;4.574;2022-12-29T07:44:44;100055.13;;;8.59;92.36
61506;BME280;47366;51.916;4.574;2022-12-29T07:47:09;100044.41;;;8.57;91.76
61506;BME280;47366;51.916;4.574;2022-12-29T07:49:34;100052.13;;;8.63;91.49
61506;BME280;47366;51.916;4.574;2022-12-29T07:52:00;100048.44;;;8.64;91.42
61506;BME280;47366;51.916;4.574;2022-12-29T07:54:25;100050.06;;;8.67;90.53
61506;BME280;47366;51.916;4.574;2022-12-29T07:56:50;100065.09;;;8.71;90.36
61506;BME280;47366;51.916;4.574;2022-12-29T07:59:16;100065.09;;;8.71;90.80
61506;BME280;47366;51.916;4.574;2022-12-29T08:01:41;100055.28;;;8.70;89.60
61506;BME280;47366;51.916;4.574;2022-12-29T08:04:07;100057.63;;;8.75;89.97
61506;BME280;47366;51.916;4.574;2022-12-29T08:06:32;100048.38;;;8.79;89.05
61506;BME280;47366;51.916;4.574;2022-12-29T08:08:58;100057.34;;;8.79;88.34
61506;BME280;47366;51.916;4.574;2022-12-29T08:11:23;100062.94;;;8.76;87.82
61506;BME280;47366;51.916;4.574;2022-12-29T08:13:49;100059.94;;;8.81;88.39
61506;BME280;47366;51.916;4.574;2022-12-29T08:16:14;100056.25;;;8.82;88.40
61506;BME280;47366;51.916;4.574;2022-12-29T08:18:40;100068.81;;;8.83;88.68
61506;BME280;47366;51.916;4.574;2022-12-29T08:21:05;100075.84;;;8.85;88.55
61506;BME280;47366;51.916;4.574;2022-12-29T08:23:31;100062.56;;;8.82;89.11
61506;BME280;47366;51.916;4.574;2022-12-29T08:26:01;100078.06;;;8.79;89.69
61506;BME280;47366;51.916;4.574;2022-12-29T08:28:27;100085.31;;;8.78;89.42
61506;BME280;47366;51.916;4.574;2022-12-29T08:30:53;100087.25;;;8.76;89.92
61506;BME280;47366;51.916;4.574;2022-12-29T08:33:18;100106.56;;;8.70;90.58
61506;BME280;47366;51.916;4.574;2022-12-29T08:35:44;100110.22;;;8.69;91.26
61506;BME280;47366;51.916;4.574;2022-12-29T08:38:10;100105.97;;;8.65;91.60
61506;BME280;47366;51.916;4.574;2022-12-29T08:40:36;100114.28;;;8.62;92.15
61506;BME280;47366;51.916;4.574;2022-12-29T08:43:02;100098.50;;;8.56;93.07
61506;BME280;47366;51.916;4.574;2022-12-29T08:45:27;100097.63;;;8.55;92.96
61506;BME280;47366;51.916;4.574;2022-12-29T08:47:52;100108.84;;;8.49;93.15
61506;BME280;47366;51.916;4.574;2022-12-29T08:50:18;100126.84;;;8.48;93.38
61506;BME280;47366;51.916;4.574;2022-12-29T08:52:43;100123.97;;;8.52;93.31
61506;BME280;47366;51.916;4.574;2022-12-29T08:55:08;100129.53;;;8.48;93.64
61506;BME280;47366;51.916;4.574;2022-12-29T08:57:34;100135.06;;;8.47;94.06
61506;BME280;47366;51.916;4.574;2022-12-29T08:59:59;100129.94;;;8.42;94.28
61506;BME280;47366;51.916;4.574;2022-12-29T09:02:24;100131.66;;;8.43;94.63
61506;BME280;47366;51.916;4.574;2022-12-29T09:04:50;100147.97;;;8.42;94.70
61506;BME280;47366;51.916;4.574;2022-12-29T09:07:15;100164.16;;;8.42;94.95
61506;BME280;47366;51.916;4.574;2022-12-29T09:09:40;100164.44;;;8.37;95.18
61506;BME280;47366;51.916;4.574;2022-12-29T09:12:06;100158.25;;;8.35;95.44
61506;BME280;47366;51.916;4.574;2022-12-29T09:14:31;100161.91;;;8.34;95.94
61506;BME280;47366;51.916;4.574;2022-12-29T09:16:57;100171.66;;;8.37;95.81
61506;BME280;47366;51.916;4.574;2022-12-29T09:19:40;100161.63;;;8.39;96.24
61506;BME280;47366;51.916;4.574;2022-12-29T09:22:06;100165.38;;;8.36;96.57
61506;BME280;47366;51.916;4.574;2022-12-29T09:24:31;100176.09;;;8.38;96.33
61506;BME280;47366;51.916;4.574;2022-12-29T09:26:56;100185.00;;;8.40;96.15
61506;BME280;47366;51.916;4.574;2022-12-29T09:29:22;100192.88;;;8.43;96.33
61506;BME280;47366;51.916;4.574;2022-12-29T09:31:47;100191.94;;;8.44;96.65
61506;BME280;47366;51.916;4.574;2022-12-29T09:34:12;100201.84;;;8.43;96.61
61506;BME280;47366;51.916;4.574;2022-12-29T09:36:38;100194.44;;;8.47;96.44
61506;BME280;47366;51.916;4.574;2022-12-29T09:39:03;100203.38;;;8.47;96.54
61506;BME280;47366;51.916;4.574;2022-12-29T09:41:36;100203.47;;;8.46;96.99
61506;BME280;47366;51.916;4.574;2022-12-29T09:44:16;100225.75;;;8.49;96.59
61506;BME280;47366;51.916;4.574;2022-12-29T09:46:50;100224.00;;;8.48;96.93
61506;BME280;47366;51.916;4.574;2022-12-29T09:51:49;100237.31;;;8.52;97.05
61506;BME280;47366;51.916;4.574;2022-12-29T09:57:00;100228.38;;;8.51;97.42
61506;BME280;47366;51.916;4.574;2022-12-29T09:59:50;100244.44;;;8.53;97.59
61506;BME280;47366;51.916;4.574;2022-12-29T10:02:29;100245.22;;;8.55;97.94
61506;BME280;47366;51.916;4.574;2022-12-29T10:04:56;100254.28;;;8.54;97.78
61506;BME280;47366;51.916;4.574;2022-12-29T10:07:36;100255.06;;;8.56;98.27
61506;BME280;47366;51.916;4.574;2022-12-29T10:16:12;100278.09;;;8.61;98.61
61506;BME280;47366;51.916;4.574;2022-12-29T10:24:04;100297.50;;;8.68;98.43
61506;BME280;47366;51.916;4.574;2022-12-29T10:26:37;100306.25;;;8.71;98.41
61506;BME280;47366;51.916;4.574;2022-12-29T10:29:06;100310.72;;;8.73;98.03
61506;BME280;47366;51.916;4.574;2022-12-29T10:31:59;100321.09;;;8.79;97.84
61506;BME280;47366;51.916;4.574;2022-12-29T10:34:29;100321.09;;;8.79;97.97
61506;BME280;47366;51.916;4.574;2022-12-29T10:37:14;100319.88;;;8.84;97.81
61506;BME280;47366;51.916;4.574;2022-12-29T10:39:49;100328.63;;;8.88;97.66
61506;BME280;47366;51.916;4.574;2022-12-29T10:42:26;100319.75;;;8.86;97.90
61506;BME280;47366;51.916;4.574;2022-12-29T10:44:52;100317.34;;;8.81;97.22
61506;BME280;47366;51.916;4.574;2022-12-29T10:47:21;100332.59;;;8.82;97.26
61506;BME280;47366;51.916;4.574;2022-12-29T10:49:48;100338.09;;;8.81;97.41
61506;BME280;47366;51.916;4.574;2022-12-29T10:52:16;100339.91;;;8.80;97.32
61506;BME280;47366;51.916;4.574;2022-12-29T10:55:00;100332.97;;;8.76;97.73
61506;BME280;47366;51.916;4.574;2022-12-29T10:57:35;100345.59;;;8.76;97.72
61506;BME280;47366;51.916;4.574;2022-12-29T11:00:16;100351.88;;;8.76;97.46
61506;BME280;47366;51.916;4.574;2022-12-29T11:08:02;100379.94;;;8.88;97.62
61506;BME280;47366;51.916;4.574;2022-12-29T11:10:34;100388.63;;;8.93;97.45
61506;BME280;47366;51.916;4.574;2022-12-29T11:13:03;100390.09;;;8.99;97.42
61506;BME280;47366;51.916;4.574;2022-12-29T11:15:41;100396.25;;;9.01;97.44
61506;BME280;47366;51.916;4.574;2022-12-29T11:18:21;100385.28;;;9.04;97.52
61506;BME280;47366;51.916;4.574;2022-12-29T11:20:49;100391.91;;;9.12;97.23
61506;BME280;47366;51.916;4.574;2022-12-29T11:28:30;100388.88;;;9.60;95.75
61506;BME280;47366;51.916;4.574;2022-12-29T11:31:03;100403.59;;;9.56;95.14
61506;BME280;47366;51.916;4.574;2022-12-29T11:33:30;100389.59;;;9.49;95.20
61506;BME280;47366;51.916;4.574;2022-12-29T11:35:58;100401.34;;;9.48;95.30
61506;BME280;47366;51.916;4.574;2022-12-29T11:38:35;100403.19;;;9.48;95.36
61506;BME280;47366;51.916;4.574;2022-12-29T11:41:02;100402.25;;;9.49;95.35
61506;BME280;47366;51.916;4.574;2022-12-29T11:43:38;100412.06;;;9.64;95.23
61506;BME280;47366;51.916;4.574;2022-12-29T11:46:05;100411.25;;;9.76;94.81
61506;BME280;47366;51.916;4.574;2022-12-29T11:48:40;100407.38;;;9.81;94.17
61506;BME280;47366;51.916;4.574;2022-12-29T11:51:07;100401.91;;;9.68;93.93
61506;BME280;47366;51.916;4.574;2022-12-29T11:53:47;100394.28;;;9.60;93.84
61506;BME280;47366;51.916;4.574;2022-12-29T11:56:19;100411.56;;;9.57;94.35
61506;BME280;47366;51.916;4.574;2022-12-29T11:58:45;100418.03;;;9.55;94.13
61506;BME280;47366;51.916;4.574;2022-12-29T12:01:23;100422.59;;;9.54;93.42
61506;BME280;47366;51.916;4.574;2022-12-29T12:06:27;100419.97;;;9.53;93.20
61506;BME280;47366;51.916;4.574;2022-12-29T12:08:57;100413.72;;;9.52;93.12
61506;BME280;47366;51.916;4.574;2022-12-29T12:11:29;100417.09;;;9.56;93.31
61506;BME280;47366;51.916;4.574;2022-12-29T12:14:13;100407.34;;;9.53;92.63
61506;BME280;47366;51.916;4.574;2022-12-29T12:16:51;100411.78;;;9.54;92.06
61506;BME280;47366;51.916;4.574;2022-12-29T12:19:41;100417.19;;;9.54;92.26
61506;BME280;47366;51.916;4.574;2022-12-29T12:22:30;100425.66;;;9.63;91.81
61506;BME280;47366;51.916;4.574;2022-12-29T12:25:01;100432.22;;;9.73;91.27
61506;BME280;47366;51.916;4.574;2022-12-29T12:27:38;100421.41;;;9.73;90.90
61506;BME280;47366;51.916;4.574;2022-12-29T12:30:15;100417.16;;;9.69;90.51
61506;BME280;47366;51.916;4.574;2022-12-29T12:32:45;100435.03;;;9.71;90.54
61506;BME280;47366;51.916;4.574;2022-12-29T12:35:18;100436.09;;;9.69;90.51
61506;BME280;47366;51.916;4.574;2022-12-29T12:40:44;100439.19;;;9.63;90.85
61506;BME280;47366;51.916;4.574;2022-12-29T12:43:28;100447.22;;;9.64;91.06
61506;BME280;47366;51.916;4.574;2022-12-29T12:46:18;100449.91;;;9.64;90.80
61506;BME280;47366;51.916;4.574;2022-12-29T12:54:29;100451.97;;;9.61;91.36
61506;BME280;47366;51.916;4.574;2022-12-29T12:57:08;100453.75;;;9.60;91.69
61506;BME280;47366;51.916;4.574;2022-12-29T13:10:28;100467.56;;;9.55;91.93
61506;BME280;47366;51.916;4.574;2022-12-29T13:15:57;100450.00;;;9.48;92.33
61506;BME280;47366;51.916;4.574;2022-12-29T13:26:52;100472.53;;;9.20;92.86
61506;BME280;47366;51.916;4.574;2022-12-29T13:32:15;100477.69;;;8.95;93.28
61506;BME280;47366;51.916;4.574;2022-12-29T13:37:29;100485.56;;;8.83;94.22
61506;BME280;47366;51.916;4.574;2022-12-29T13:40:24;100490.44;;;8.77;94.47
61506;BME280;47366;51.916;4.574;2022-12-29T13:42:50;100476.34;;;8.71;94.38
61506;BME280;47366;51.916;4.574;2022-12-29T13:45:20;100477.50;;;8.67;94.59
61506;BME280;47366;51.916;4.574;2022-12-29T13:47:54;100479.44;;;8.65;94.11
61506;BME280;47366;51.916;4.574;2022-12-29T13:50:24;100481.16;;;8.66;94.21
61506;BME280;47366;51.916;4.574;2022-12-29T13:58:39;100471.34;;;8.65;94.02
61506;BME280;47366;51.916;4.574;2022-12-29T14:03:52;100473.16;;;8.65;94.57
61506;BME280;47366;51.916;4.574;2022-12-29T14:06:32;100477.59;;;8.66;94.80
61506;BME280;47366;51.916;4.574;2022-12-29T14:09:01;100478.56;;;8.65;95.08
61506;BME280;47366;51.916;4.574;2022-12-29T14:11:39;100474.13;;;8.64;95.29
61506;BME280;47366;51.916;4.574;2022-12-29T14:14:21;100482.16;;;8.65;95.51
61506;BME280;47366;51.916;4.574;2022-12-29T14:16:48;100471.34;;;8.65;95.72
61506;BME280;47366;51.916;4.574;2022-12-29T14:19:29;100467.94;;;8.62;95.98
61506;BME280;47366;51.916;4.574;2022-12-29T14:21:58;100483.00;;;8.66;95.83
61506;BME280;47366;51.916;4.574;2022-12-29T14:34:53;100496.25;;;8.70;95.42
61506;BME280;47366;51.916;4.574;2022-12-29T14:37:36;100491.88;;;8.68;95.42
61506;BME280;47366;51.916;4.574;2022-12-29T14:40:17;100487.16;;;8.71;95.39
61506;BME280;47366;51.916;4.574;2022-12-29T14:42:44;100485.44;;;8.70;95.13
61506;BME280;47366;51.916;4.574;2022-12-29T14:47:56;100484.56;;;8.70;95.19
61506;BME280;47366;51.916;4.574;2022-12-29T14:52:54;100494.41;;;8.71;95.21
61506;BME280;47366;51.916;4.574;2022-12-29T14:58:21;100509.75;;;8.70;95.03
61506;BME280;47366;51.916;4.574;2022-12-29T15:00:47;100510.00;;;8.66;95.08
61506;BME280;47366;51.916;4.574;2022-12-29T15:06:04;100515.22;;;8.69;95.02
61506;BME280;47366;51.916;4.574;2022-12-29T15:08:35;100514.34;;;8.68;94.73
61506;BME280;47366;51.916;4.574;2022-12-29T15:11:17;100508.09;;;8.68;94.76
61506;BME280;47366;51.916;4.574;2022-12-29T15:13:43;100515.28;;;8.67;94.55
61506;BME280;47366;51.916;4.574;2022-12-29T15:16:25;100522.47;;;8.68;94.52